sensor_id;sensor_type;location;lat;lon;timestamp;P1;durP1;ratioP1;P2;durP2;ratioP2
18210;SDS011;9231;48.852;9.882;2022-08-11T00:02:16;15.97;;;6.60;;
18210;SDS011;9231;48.852;9.882;2022-08-11T00:04:48;15.13;;;6.73;;
18210;SDS011;9231;48.852;9.882;2022-08-11T00:07:15;7.87;;;3.93;;
18210;SDS011;9231;48.852;9.882;2022-08-11T00:09:42;21.47;;;9.13;;
18210;SDS011;9231;48.852;9.882;2022-08-11T00:12:11;13.53;;;5.73;;
18210;SDS011;9231;48.852;9.882;2022-08-11T00:14:38;13.30;;;5.37;;
18210;SDS011;9231;48.852;9.882;2022-08-11T00:17:08;14.27;;;5.90;;
18210;SDS011;9231;48.852;9.882;2022-08-11T00:19:35;12.87;;;5.67;;
18210;SDS011;9231;48.852;9.882;2022-08-11T00:22:03;11.97;;;4.97;;
18210;SDS011;9231;48.852;9.882;2022-08-11T00:24:31;14.17;;;5.23;;
18210;SDS011;9231;48.852;9.882;2022-08-11T00:26:58;17.07;;;5.63;;
18210;SDS011;9231;48.852;9.882;2022-08-11T00:29:25;10.70;;;5.40;;
18210;SDS011;9231;48.852;9.882;2022-08-11T00:31:52;8.93;;;4.43;;
18210;SDS011;9231;48.852;9.882;2022-08-11T00:34:21;12.60;;;5.73;;
18210;SDS011;9231;48.852;9.882;2022-08-11T00:36:50;14.10;;;6.13;;
18210;SDS011;9231;48.852;9.882;2022-08-11T00:39:18;13.80;;;6.27;;
18210;SDS011;9231;48.852;9.882;2022-08-11T00:41:46;5.03;;;3.07;;
18210;SDS011;9231;48.852;9.882;2022-08-11T00:44:24;14.67;;;5.93;;
18210;SDS011;9231;48.852;9.882;2022-08-11T00:46:58;13.13;;;5.97;;
18210;SDS011;9231;48.852;9.882;2022-08-11T00:49:33;13.07;;;6.17;;
18210;SDS011;9231;48.852;9.882;2022-08-11T00:52:07;13.07;;;6.17;;
18210;SDS011;9231;48.852;9.882;2022-08-11T00:54:42;13.13;;;6.13;;
18210;SDS011;9231;48.852;9.882;2022-08-11T00:57:25;12.67;;;6.20;;
18210;SDS011;9231;48.852;9.882;2022-08-11T01:00:12;16.57;;;6.37;;
18210;SDS011;9231;48.852;9.882;2022-08-11T01:05:47;13.93;;;6.27;;
18210;SDS011;9231;48.852;9.882;2022-08-11T01:08:25;13.10;;;5.67;;
18210;SDS011;9231;48.852;9.882;2022-08-11T01:13:56;12.10;;;5.60;;
18210;SDS011;9231;48.852;9.882;2022-08-11T01:30:18;14.73;;;6.70;;
18210;SDS011;9231;48.852;9.882;2022-08-11T01:35:46;9.33;;;4.97;;
18210;SDS011;9231;48.852;9.882;2022-08-11T01:38:25;16.73;;;6.40;;
18210;SDS011;9231;48.852;9.882;2022-08-11T01:41:03;25.53;;;11.63;;
18210;SDS011;9231;48.852;9.882;2022-08-11T01:46:35;14.93;;;6.07;;
18210;SDS011;9231;48.852;9.882;2022-08-11T01:49:06;8.73;;;4.40;;
18210;SDS011;9231;48.852;9.882;2022-08-11T01:51:44;17.43;;;6.77;;
18210;SDS011;9231;48.852;9.882;2022-08-11T01:54:14;16.83;;;5.90;;
18210;SDS011;9231;48.852;9.882;2022-08-11T01:56:48;12.93;;;5.93;;
18210;SDS011;9231;48.852;9.882;2022-08-11T01:59:22;14.57;;;6.63;;
18210;SDS011;9231;48.852;9.882;2022-08-11T02:02:17;17.77;;;7.57;;
18210;SDS011;9231;48.852;9.882;2022-08-11T02:05:09;13.07;;;6.40;;
18210;SDS011;9231;48.852;9.882;2022-08-11T02:07:49;13.80;;;6.30;;
18210;SDS011;9231;48.852;9.882;2022-08-11T02:10:19;13.07;;;6.10;;
18210;SDS011;9231;48.852;9.882;2022-08-11T02:13:09;12.83;;;6.33;;
18210;SDS011;9231;48.852;9.882;2022-08-11T02:15:37;13.90;;;5.90;;
18210;SDS011;9231;48.852;9.882;2022-08-11T02:18:07;12.50;;;5.83;;
18210;SDS011;9231;48.852;9.882;2022-08-11T02:20:36;17.93;;;7.17;;
18210;SDS011;9231;48.852;9.882;2022-08-11T02:23:28;13.87;;;6.27;;
18210;SDS011;9231;48.852;9.882;2022-08-11T02:26:09;18.27;;;7.07;;
18210;SDS011;9231;48.852;9.882;2022-08-11T02:28:41;5.60;;;3.00;;
18210;SDS011;9231;48.852;9.882;2022-08-11T02:31:11;26.93;;;9.17;;
18210;SDS011;9231;48.852;9.882;2022-08-11T02:34:02;8.43;;;4.13;;
18210;SDS011;9231;48.852;9.882;2022-08-11T02:36:41;14.37;;;6.50;;
18210;SDS011;9231;48.852;9.882;2022-08-11T02:39:12;12.57;;;5.63;;
18210;SDS011;9231;48.852;9.882;2022-08-11T02:41:42;10.20;;;4.20;;
18210;SDS011;9231;48.852;9.882;2022-08-11T02:44:28;14.13;;;6.30;;
18210;SDS011;9231;48.852;9.882;2022-08-11T02:47:02;18.60;;;6.57;;
18210;SDS011;9231;48.852;9.882;2022-08-11T02:49:43;13.87;;;6.30;;
18210;SDS011;9231;48.852;9.882;2022-08-11T02:52:19;14.47;;;7.53;;
18210;SDS011;9231;48.852;9.882;2022-08-11T02:54:51;15.00;;;6.97;;
18210;SDS011;9231;48.852;9.882;2022-08-11T02:57:20;8.87;;;4.53;;
18210;SDS011;9231;48.852;9.882;2022-08-11T02:59:48;12.97;;;6.30;;
18210;SDS011;9231;48.852;9.882;2022-08-11T03:02:19;18.67;;;6.77;;
18210;SDS011;9231;48.852;9.882;2022-08-11T03:04:50;14.97;;;7.03;;
18210;SDS011;9231;48.852;9.882;2022-08-11T03:07:22;17.97;;;6.67;;
18210;SDS011;9231;48.852;9.882;2022-08-11T03:09:54;14.37;;;6.20;;
18210;SDS011;9231;48.852;9.882;2022-08-11T03:12:24;12.70;;;6.17;;
18210;SDS011;9231;48.852;9.882;2022-08-11T03:15:11;14.80;;;6.67;;
18210;SDS011;9231;48.852;9.882;2022-08-11T03:18:11;12.77;;;5.47;;
18210;SDS011;9231;48.852;9.882;2022-08-11T03:20:41;13.40;;;6.00;;
18210;SDS011;9231;48.852;9.882;2022-08-11T03:23:15;12.23;;;5.87;;
18210;SDS011;9231;48.852;9.882;2022-08-11T03:25:45;12.00;;;5.60;;
18210;SDS011;9231;48.852;9.882;2022-08-11T03:28:19;11.80;;;5.80;;
18210;SDS011;9231;48.852;9.882;2022-08-11T03:30:50;21.23;;;9.67;;
18210;SDS011;9231;48.852;9.882;2022-08-11T03:33:20;12.60;;;6.03;;
18210;SDS011;9231;48.852;9.882;2022-08-11T03:36:09;13.30;;;6.10;;
18210;SDS011;9231;48.852;9.882;2022-08-11T03:38:43;12.37;;;5.30;;
18210;SDS011;9231;48.852;9.882;2022-08-11T03:41:16;14.23;;;6.30;;
18210;SDS011;9231;48.852;9.882;2022-08-11T03:44:03;4.30;;;3.03;;
18210;SDS011;9231;48.852;9.882;2022-08-11T03:46:38;14.73;;;6.57;;
18210;SDS011;9231;48.852;9.882;2022-08-11T03:49:18;17.17;;;6.77;;
18210;SDS011;9231;48.852;9.882;2022-08-11T03:51:50;13.00;;;6.20;;
18210;SDS011;9231;48.852;9.882;2022-08-11T03:54:23;15.00;;;7.27;;
18210;SDS011;9231;48.852;9.882;2022-08-11T04:05:20;8.97;;;4.80;;
18210;SDS011;9231;48.852;9.882;2022-08-11T04:07:57;13.20;;;6.47;;
18210;SDS011;9231;48.852;9.882;2022-08-11T04:10:40;12.90;;;6.47;;
18210;SDS011;9231;48.852;9.882;2022-08-11T04:13:29;14.33;;;6.67;;
18210;SDS011;9231;48.852;9.882;2022-08-11T04:16:04;15.63;;;6.33;;
18210;SDS011;9231;48.852;9.882;2022-08-11T04:21:33;11.07;;;5.33;;
18210;SDS011;9231;48.852;9.882;2022-08-11T04:24:11;13.33;;;6.30;;
18210;SDS011;9231;48.852;9.882;2022-08-11T04:26:59;14.47;;;6.97;;
18210;SDS011;9231;48.852;9.882;2022-08-11T04:29:33;12.33;;;5.67;;
18210;SDS011;9231;48.852;9.882;2022-08-11T04:32:03;7.03;;;4.30;;
18210;SDS011;9231;48.852;9.882;2022-08-11T04:40:03;14.20;;;6.20;;
18210;SDS011;9231;48.852;9.882;2022-08-11T04:45:35;13.13;;;6.70;;
18210;SDS011;9231;48.852;9.882;2022-08-11T04:51:22;17.63;;;6.40;;
18210;SDS011;9231;48.852;9.882;2022-08-11T04:54:17;14.80;;;6.93;;
18210;SDS011;9231;48.852;9.882;2022-08-11T04:57:07;13.63;;;6.67;;
18210;SDS011;9231;48.852;9.882;2022-08-11T05:00:00;14.17;;;6.73;;
18210;SDS011;9231;48.852;9.882;2022-08-11T05:05:52;13.57;;;6.23;;
18210;SDS011;9231;48.852;9.882;2022-08-11T05:11:19;14.77;;;6.77;;
18210;SDS011;9231;48.852;9.882;2022-08-11T05:14:01;6.90;;;4.23;;
18210;SDS011;9231;48.852;9.882;2022-08-11T05:16:57;13.07;;;6.33;;
18210;SDS011;9231;48.852;9.882;2022-08-11T05:19:43;15.23;;;6.83;;
18210;SDS011;9231;48.852;9.882;2022-08-11T05:22:28;13.60;;;6.30;;
18210;SDS011;9231;48.852;9.882;2022-08-11T05:25:14;12.43;;;6.10;;
18210;SDS011;9231;48.852;9.882;2022-08-11T05:28:12;13.27;;;6.40;;
18210;SDS011;9231;48.852;9.882;2022-08-11T05:30:59;15.30;;;6.90;;
18210;SDS011;9231;48.852;9.882;2022-08-11T05:33:46;14.47;;;7.00;;
18210;SDS011;9231;48.852;9.882;2022-08-11T05:36:32;15.37;;;6.80;;
18210;SDS011;9231;48.852;9.882;2022-08-11T05:39:02;14.97;;;6.40;;
18210;SDS011;9231;48.852;9.882;2022-08-11T05:41:48;14.20;;;6.60;;
18210;SDS011;9231;48.852;9.882;2022-08-11T05:44:32;14.30;;;5.77;;
18210;SDS011;9231;48.852;9.882;2022-08-11T05:47:22;15.33;;;6.50;;
18210;SDS011;9231;48.852;9.882;2022-08-11T05:50:07;10.20;;;5.17;;
18210;SDS011;9231;48.852;9.882;2022-08-11T05:52:52;13.43;;;6.77;;
18210;SDS011;9231;48.852;9.882;2022-08-11T05:55:37;15.23;;;7.00;;
18210;SDS011;9231;48.852;9.882;2022-08-11T05:58:22;13.53;;;6.10;;
18210;SDS011;9231;48.852;9.882;2022-08-11T06:00:49;15.63;;;8.03;;
18210;SDS011;9231;48.852;9.882;2022-08-11T06:03:21;12.77;;;5.97;;
18210;SDS011;9231;48.852;9.882;2022-08-11T06:05:50;13.77;;;6.77;;
18210;SDS011;9231;48.852;9.882;2022-08-11T06:08:16;12.80;;;6.50;;
18210;SDS011;9231;48.852;9.882;2022-08-11T06:10:44;16.87;;;7.83;;
18210;SDS011;9231;48.852;9.882;2022-08-11T06:13:13;12.23;;;5.50;;
18210;SDS011;9231;48.852;9.882;2022-08-11T06:15:44;11.93;;;6.00;;
18210;SDS011;9231;48.852;9.882;2022-08-11T06:18:11;10.27;;;5.03;;
18210;SDS011;9231;48.852;9.882;2022-08-11T06:20:46;20.23;;;7.63;;
18210;SDS011;9231;48.852;9.882;2022-08-11T06:23:12;9.63;;;5.10;;
18210;SDS011;9231;48.852;9.882;2022-08-11T06:25:42;11.00;;;6.00;;
18210;SDS011;9231;48.852;9.882;2022-08-11T06:28:08;13.27;;;6.07;;
18210;SDS011;9231;48.852;9.882;2022-08-11T06:30:35;15.13;;;6.63;;
18210;SDS011;9231;48.852;9.882;2022-08-11T06:33:05;9.20;;;4.33;;
18210;SDS011;9231;48.852;9.882;2022-08-11T06:35:35;13.53;;;6.23;;
18210;SDS011;9231;48.852;9.882;2022-08-11T06:38:05;12.67;;;6.40;;
18210;SDS011;9231;48.852;9.882;2022-08-11T06:40:35;18.50;;;6.93;;
18210;SDS011;9231;48.852;9.882;2022-08-11T06:43:04;14.93;;;6.13;;
18210;SDS011;9231;48.852;9.882;2022-08-11T06:45:33;14.20;;;6.20;;
18210;SDS011;9231;48.852;9.882;2022-08-11T06:48:04;13.23;;;6.47;;
18210;SDS011;9231;48.852;9.882;2022-08-11T06:50:35;17.50;;;7.03;;
18210;SDS011;9231;48.852;9.882;2022-08-11T06:53:21;12.90;;;6.07;;
18210;SDS011;9231;48.852;9.882;2022-08-11T06:55:47;16.87;;;7.00;;
18210;SDS011;9231;48.852;9.882;2022-08-11T06:58:35;15.57;;;6.57;;
18210;SDS011;9231;48.852;9.882;2022-08-11T07:01:22;59.80;;;25.17;;
18210;SDS011;9231;48.852;9.882;2022-08-11T07:03:54;13.13;;;7.40;;
18210;SDS011;9231;48.852;9.882;2022-08-11T07:06:39;15.53;;;6.70;;
18210;SDS011;9231;48.852;9.882;2022-08-11T07:09:12;13.37;;;6.93;;
18210;SDS011;9231;48.852;9.882;2022-08-11T07:12:05;15.43;;;7.30;;
18210;SDS011;9231;48.852;9.882;2022-08-11T07:16:42;146.93;;;137.43;;
18210;SDS011;9231;48.852;9.882;2022-08-11T07:19:09;311.37;;;288.20;;
18210;SDS011;9231;48.852;9.882;2022-08-11T07:21:54;381.30;;;343.17;;
18210;SDS011;9231;48.852;9.882;2022-08-11T07:24:40;195.87;;;182.83;;
18210;SDS011;9231;48.852;9.882;2022-08-11T07:27:26;200.03;;;187.80;;
18210;SDS011;9231;48.852;9.882;2022-08-11T07:30:11;229.40;;;213.80;;
18210;SDS011;9231;48.852;9.882;2022-08-11T07:32:41;176.37;;;165.40;;
18210;SDS011;9231;48.852;9.882;2022-08-11T07:35:11;189.07;;;177.10;;
18210;SDS011;9231;48.852;9.882;2022-08-11T07:37:39;194.73;;;182.63;;
18210;SDS011;9231;48.852;9.882;2022-08-11T07:40:09;197.80;;;185.43;;
18210;SDS011;9231;48.852;9.882;2022-08-11T07:42:35;968.07;;;549.00;;
18210;SDS011;9231;48.852;9.882;2022-08-11T07:45:04;1999.90;;;999.90;;
18210;SDS011;9231;48.852;9.882;2022-08-11T07:47:50;1999.90;;;999.90;;
18210;SDS011;9231;48.852;9.882;2022-08-11T07:50:35;1999.90;;;999.90;;
18210;SDS011;9231;48.852;9.882;2022-08-11T07:53:22;1999.90;;;999.90;;
18210;SDS011;9231;48.852;9.882;2022-08-11T07:55:49;1999.90;;;999.90;;
18210;SDS011;9231;48.852;9.882;2022-08-11T07:58:18;1029.30;;;216.07;;
18210;SDS011;9231;48.852;9.882;2022-08-11T08:01:03;1645.77;;;782.47;;
18210;SDS011;9231;48.852;9.882;2022-08-11T08:03:48;1999.90;;;999.90;;
18210;SDS011;9231;48.852;9.882;2022-08-11T08:06:33;6.07;;;3.17;;
18210;SDS011;9231;48.852;9.882;2022-08-11T08:09:17;18.10;;;13.73;;
18210;SDS011;9231;48.852;9.882;2022-08-11T08:12:02;1999.90;;;999.90;;
18210;SDS011;9231;48.852;9.882;2022-08-11T08:14:46;877.03;;;130.23;;
18210;SDS011;9231;48.852;9.882;2022-08-11T08:17:31;11.97;;;5.07;;
18210;SDS011;9231;48.852;9.882;2022-08-11T08:20:19;15.10;;;6.57;;
18210;SDS011;9231;48.852;9.882;2022-08-11T08:22:46;7.60;;;3.87;;
18210;SDS011;9231;48.852;9.882;2022-08-11T08:25:13;11.50;;;4.97;;
18210;SDS011;9231;48.852;9.882;2022-08-11T08:27:41;9.80;;;4.17;;
18210;SDS011;9231;48.852;9.882;2022-08-11T08:30:10;8.80;;;4.30;;
18210;SDS011;9231;48.852;9.882;2022-08-11T08:32:55;10.10;;;4.87;;
18210;SDS011;9231;48.852;9.882;2022-08-11T08:35:26;14.57;;;5.13;;
18210;SDS011;9231;48.852;9.882;2022-08-11T08:37:54;10.23;;;5.07;;
18210;SDS011;9231;48.852;9.882;2022-08-11T08:40:21;9.93;;;4.87;;
18210;SDS011;9231;48.852;9.882;2022-08-11T08:42:48;10.70;;;4.77;;
18210;SDS011;9231;48.852;9.882;2022-08-11T08:45:17;11.43;;;4.33;;
18210;SDS011;9231;48.852;9.882;2022-08-11T08:47:45;8.33;;;4.17;;
18210;SDS011;9231;48.852;9.882;2022-08-11T08:50:13;9.33;;;4.57;;
18210;SDS011;9231;48.852;9.882;2022-08-11T08:52:46;3.53;;;2.47;;
18210;SDS011;9231;48.852;9.882;2022-08-11T08:55:16;14.37;;;4.37;;
18210;SDS011;9231;48.852;9.882;2022-08-11T08:57:43;7.60;;;4.07;;
18210;SDS011;9231;48.852;9.882;2022-08-11T09:00:10;9.73;;;4.37;;
18210;SDS011;9231;48.852;9.882;2022-08-11T09:02:39;10.47;;;4.37;;
18210;SDS011;9231;48.852;9.882;2022-08-11T09:05:06;12.20;;;4.70;;
18210;SDS011;9231;48.852;9.882;2022-08-11T09:07:34;9.80;;;4.53;;
18210;SDS011;9231;48.852;9.882;2022-08-11T09:10:03;10.80;;;4.53;;
18210;SDS011;9231;48.852;9.882;2022-08-11T09:12:30;10.13;;;4.03;;
18210;SDS011;9231;48.852;9.882;2022-08-11T09:14:58;9.90;;;3.80;;
18210;SDS011;9231;48.852;9.882;2022-08-11T09:17:30;10.50;;;4.23;;
18210;SDS011;9231;48.852;9.882;2022-08-11T09:19:59;9.30;;;4.00;;
18210;SDS011;9231;48.852;9.882;2022-08-11T09:22:26;7.97;;;3.93;;
18210;SDS011;9231;48.852;9.882;2022-08-11T09:25:11;3.90;;;2.63;;
18210;SDS011;9231;48.852;9.882;2022-08-11T09:27:56;11.23;;;4.73;;
18210;SDS011;9231;48.852;9.882;2022-08-11T09:30:24;8.37;;;3.70;;
18210;SDS011;9231;48.852;9.882;2022-08-11T09:32:51;15.02;;;4.75;;
18210;SDS011;9231;48.852;9.882;2022-08-11T09:35:21;12.23;;;5.00;;
18210;SDS011;9231;48.852;9.882;2022-08-11T09:37:48;9.70;;;4.05;;
18210;SDS011;9231;48.852;9.882;2022-08-11T09:40:34;11.75;;;5.28;;
18210;SDS011;9231;48.852;9.882;2022-08-11T09:43:02;11.25;;;4.22;;
18210;SDS011;9231;48.852;9.882;2022-08-11T09:45:48;8.95;;;3.50;;
18210;SDS011;9231;48.852;9.882;2022-08-11T09:48:16;9.65;;;4.65;;
18210;SDS011;9231;48.852;9.882;2022-08-11T09:50:43;11.93;;;5.50;;
18210;SDS011;9231;48.852;9.882;2022-08-11T09:53:10;14.68;;;5.40;;
18210;SDS011;9231;48.852;9.882;2022-08-11T09:55:38;11.15;;;4.90;;
18210;SDS011;9231;48.852;9.882;2022-08-11T09:58:05;10.32;;;4.97;;
18210;SDS011;9231;48.852;9.882;2022-08-11T10:00:40;15.52;;;5.78;;
18210;SDS011;9231;48.852;9.882;2022-08-11T10:03:08;12.00;;;5.35;;
18210;SDS011;9231;48.852;9.882;2022-08-11T10:05:36;12.55;;;5.20;;
18210;SDS011;9231;48.852;9.882;2022-08-11T10:08:20;9.18;;;3.95;;
18210;SDS011;9231;48.852;9.882;2022-08-11T10:10:49;15.68;;;7.03;;
18210;SDS011;9231;48.852;9.882;2022-08-11T10:13:16;10.07;;;4.57;;
18210;SDS011;9231;48.852;9.882;2022-08-11T10:15:49;14.07;;;5.82;;
18210;SDS011;9231;48.852;9.882;2022-08-11T10:18:18;12.77;;;5.10;;
18210;SDS011;9231;48.852;9.882;2022-08-11T10:21:13;13.27;;;4.97;;
18210;SDS011;9231;48.852;9.882;2022-08-11T10:23:40;11.95;;;4.90;;
18210;SDS011;9231;48.852;9.882;2022-08-11T10:26:27;12.70;;;6.22;;
18210;SDS011;9231;48.852;9.882;2022-08-11T10:29:11;11.40;;;5.47;;
18210;SDS011;9231;48.852;9.882;2022-08-11T10:31:52;11.35;;;5.32;;
18210;SDS011;9231;48.852;9.882;2022-08-11T10:34:40;11.65;;;5.30;;
18210;SDS011;9231;48.852;9.882;2022-08-11T10:37:08;12.55;;;5.15;;
18210;SDS011;9231;48.852;9.882;2022-08-11T10:39:36;12.25;;;5.78;;
18210;SDS011;9231;48.852;9.882;2022-08-11T10:42:05;10.85;;;4.72;;
18210;SDS011;9231;48.852;9.882;2022-08-11T10:44:50;6.50;;;3.28;;
18210;SDS011;9231;48.852;9.882;2022-08-11T10:47:17;11.82;;;4.93;;
18210;SDS011;9231;48.852;9.882;2022-08-11T10:49:59;14.88;;;5.35;;
18210;SDS011;9231;48.852;9.882;2022-08-11T10:52:43;7.47;;;3.75;;
18210;SDS011;9231;48.852;9.882;2022-08-11T10:55:27;10.45;;;4.20;;
18210;SDS011;9231;48.852;9.882;2022-08-11T10:58:13;9.05;;;4.30;;
18210;SDS011;9231;48.852;9.882;2022-08-11T11:00:57;15.20;;;6.50;;
18210;SDS011;9231;48.852;9.882;2022-08-11T11:03:24;11.35;;;5.13;;
18210;SDS011;9231;48.852;9.882;2022-08-11T11:05:51;11.48;;;4.45;;
18210;SDS011;9231;48.852;9.882;2022-08-11T11:08:21;11.32;;;5.22;;
18210;SDS011;9231;48.852;9.882;2022-08-11T11:11:09;9.85;;;4.35;;
18210;SDS011;9231;48.852;9.882;2022-08-11T11:13:36;10.55;;;4.60;;
18210;SDS011;9231;48.852;9.882;2022-08-11T11:16:21;10.70;;;4.25;;
18210;SDS011;9231;48.852;9.882;2022-08-11T11:19:11;11.18;;;4.45;;
18210;SDS011;9231;48.852;9.882;2022-08-11T11:21:43;10.50;;;4.40;;
18210;SDS011;9231;48.852;9.882;2022-08-11T11:24:12;10.35;;;4.28;;
18210;SDS011;9231;48.852;9.882;2022-08-11T11:26:42;9.00;;;4.20;;
18210;SDS011;9231;48.852;9.882;2022-08-11T11:32:07;10.35;;;4.40;;
18210;SDS011;9231;48.852;9.882;2022-08-11T11:34:37;9.38;;;4.60;;
18210;SDS011;9231;48.852;9.882;2022-08-11T11:37:07;9.23;;;4.38;;
18210;SDS011;9231;48.852;9.882;2022-08-11T11:39:33;9.27;;;4.55;;
18210;SDS011;9231;48.852;9.882;2022-08-11T11:42:03;6.10;;;2.72;;
18210;SDS011;9231;48.852;9.882;2022-08-11T11:44:30;5.95;;;2.70;;
18210;SDS011;9231;48.852;9.882;2022-08-11T11:46:57;10.73;;;4.93;;
18210;SDS011;9231;48.852;9.882;2022-08-11T11:49:26;23.27;;;7.63;;
18210;SDS011;9231;48.852;9.882;2022-08-11T11:51:53;9.55;;;4.20;;
18210;SDS011;9231;48.852;9.882;2022-08-11T11:54:21;11.05;;;4.93;;
18210;SDS011;9231;48.852;9.882;2022-08-11T11:56:48;12.30;;;5.25;;
18210;SDS011;9231;48.852;9.882;2022-08-11T11:59:17;15.38;;;5.82;;
18210;SDS011;9231;48.852;9.882;2022-08-11T12:02:01;20.05;;;12.38;;
18210;SDS011;9231;48.852;9.882;2022-08-11T12:04:29;19.83;;;16.23;;
18210;SDS011;9231;48.852;9.882;2022-08-11T12:06:56;20.83;;;18.77;;
18210;SDS011;9231;48.852;9.882;2022-08-11T12:09:37;39.20;;;35.53;;
18210;SDS011;9231;48.852;9.882;2022-08-11T12:12:03;25.48;;;23.38;;
18210;SDS011;9231;48.852;9.882;2022-08-11T12:14:47;52.45;;;49.05;;
18210;SDS011;9231;48.852;9.882;2022-08-11T12:17:14;37.65;;;34.53;;
18210;SDS011;9231;48.852;9.882;2022-08-11T12:19:42;28.48;;;25.58;;
18210;SDS011;9231;48.852;9.882;2022-08-11T12:22:08;30.40;;;27.85;;
18210;SDS011;9231;48.852;9.882;2022-08-11T12:24:52;42.88;;;39.83;;
18210;SDS011;9231;48.852;9.882;2022-08-11T12:27:36;52.58;;;48.63;;
18210;SDS011;9231;48.852;9.882;2022-08-11T12:30:05;38.63;;;35.60;;
18210;SDS011;9231;48.852;9.882;2022-08-11T12:32:34;26.38;;;23.73;;
18210;SDS011;9231;48.852;9.882;2022-08-11T12:35:02;22.85;;;20.63;;
18210;SDS011;9231;48.852;9.882;2022-08-11T12:37:29;26.30;;;18.75;;
18210;SDS011;9231;48.852;9.882;2022-08-11T12:39:57;20.67;;;18.67;;
18210;SDS011;9231;48.852;9.882;2022-08-11T12:42:42;19.70;;;17.67;;
18210;SDS011;9231;48.852;9.882;2022-08-11T12:45:26;16.48;;;15.27;;
18210;SDS011;9231;48.852;9.882;2022-08-11T12:47:55;18.23;;;15.50;;
18210;SDS011;9231;48.852;9.882;2022-08-11T12:50:43;21.55;;;17.08;;
18210;SDS011;9231;48.852;9.882;2022-08-11T12:53:30;9.35;;;8.65;;
18210;SDS011;9231;48.852;9.882;2022-08-11T12:55:58;15.57;;;11.77;;
18210;SDS011;9231;48.852;9.882;2022-08-11T12:58:45;14.25;;;9.70;;
18210;SDS011;9231;48.852;9.882;2022-08-11T13:01:14;8.10;;;7.30;;
18210;SDS011;9231;48.852;9.882;2022-08-11T13:03:58;10.95;;;4.93;;
18210;SDS011;9231;48.852;9.882;2022-08-11T13:06:43;10.05;;;4.53;;
18210;SDS011;9231;48.852;9.882;2022-08-11T13:09:10;8.82;;;4.68;;
18210;SDS011;9231;48.852;9.882;2022-08-11T13:11:37;14.95;;;6.65;;
18210;SDS011;9231;48.852;9.882;2022-08-11T13:14:21;13.32;;;5.80;;
18210;SDS011;9231;48.852;9.882;2022-08-11T13:16:48;5.85;;;3.03;;
18210;SDS011;9231;48.852;9.882;2022-08-11T13:19:32;9.95;;;4.35;;
18210;SDS011;9231;48.852;9.882;2022-08-11T13:22:01;19.15;;;7.60;;
18210;SDS011;9231;48.852;9.882;2022-08-11T13:24:31;11.23;;;5.10;;
18210;SDS011;9231;48.852;9.882;2022-08-11T13:26:58;9.10;;;4.43;;
18210;SDS011;9231;48.852;9.882;2022-08-11T13:29:26;12.15;;;5.00;;
18210;SDS011;9231;48.852;9.882;2022-08-11T13:31:54;5.40;;;2.75;;
18210;SDS011;9231;48.852;9.882;2022-08-11T13:34:23;10.15;;;4.78;;
18210;SDS011;9231;48.852;9.882;2022-08-11T13:36:50;10.27;;;4.88;;
18210;SDS011;9231;48.852;9.882;2022-08-11T13:39:18;12.80;;;4.95;;
18210;SDS011;9231;48.852;9.882;2022-08-11T13:41:45;11.10;;;5.10;;
18210;SDS011;9231;48.852;9.882;2022-08-11T13:44:14;11.23;;;4.78;;
18210;SDS011;9231;48.852;9.882;2022-08-11T13:46:41;10.73;;;4.40;;
18210;SDS011;9231;48.852;9.882;2022-08-11T13:49:08;10.63;;;5.10;;
18210;SDS011;9231;48.852;9.882;2022-08-11T13:51:36;15.82;;;7.53;;
18210;SDS011;9231;48.852;9.882;2022-08-11T13:54:04;9.60;;;4.50;;
18210;SDS011;9231;48.852;9.882;2022-08-11T13:56:32;10.57;;;5.55;;
18210;SDS011;9231;48.852;9.882;2022-08-11T13:59:00;12.40;;;4.57;;
18210;SDS011;9231;48.852;9.882;2022-08-11T14:01:28;5.68;;;2.65;;
18210;SDS011;9231;48.852;9.882;2022-08-11T14:03:56;17.92;;;7.60;;
18210;SDS011;9231;48.852;9.882;2022-08-11T14:06:24;7.43;;;2.80;;
18210;SDS011;9231;48.852;9.882;2022-08-11T14:08:51;11.80;;;5.13;;
18210;SDS011;9231;48.852;9.882;2022-08-11T14:11:18;12.10;;;3.83;;
18210;SDS011;9231;48.852;9.882;2022-08-11T14:14:04;12.38;;;5.13;;
18210;SDS011;9231;48.852;9.882;2022-08-11T14:16:33;12.18;;;5.63;;
18210;SDS011;9231;48.852;9.882;2022-08-11T14:19:03;7.35;;;3.50;;
18210;SDS011;9231;48.852;9.882;2022-08-11T14:21:31;15.75;;;5.78;;
18210;SDS011;9231;48.852;9.882;2022-08-11T14:24:18;11.75;;;5.05;;
18210;SDS011;9231;48.852;9.882;2022-08-11T14:26:45;11.20;;;5.15;;
18210;SDS011;9231;48.852;9.882;2022-08-11T14:29:15;11.27;;;5.15;;
18210;SDS011;9231;48.852;9.882;2022-08-11T14:31:43;4.28;;;3.50;;
18210;SDS011;9231;48.852;9.882;2022-08-11T14:34:10;10.65;;;6.18;;
18210;SDS011;9231;48.852;9.882;2022-08-11T14:36:39;13.85;;;5.78;;
18210;SDS011;9231;48.852;9.882;2022-08-11T14:39:07;12.70;;;5.90;;
18210;SDS011;9231;48.852;9.882;2022-08-11T14:41:35;17.95;;;7.90;;
18210;SDS011;9231;48.852;9.882;2022-08-11T14:44:21;19.33;;;7.15;;
18210;SDS011;9231;48.852;9.882;2022-08-11T14:47:05;9.77;;;5.40;;
18210;SDS011;9231;48.852;9.882;2022-08-11T14:49:32;11.63;;;5.15;;
18210;SDS011;9231;48.852;9.882;2022-08-11T14:52:00;12.00;;;6.15;;
18210;SDS011;9231;48.852;9.882;2022-08-11T14:54:27;14.32;;;5.47;;
18210;SDS011;9231;48.852;9.882;2022-08-11T14:57:11;11.55;;;5.20;;
18210;SDS011;9231;48.852;9.882;2022-08-11T14:59:39;10.68;;;4.85;;
18210;SDS011;9231;48.852;9.882;2022-08-11T15:02:07;10.02;;;5.00;;
18210;SDS011;9231;48.852;9.882;2022-08-11T15:04:52;11.35;;;5.38;;
18210;SDS011;9231;48.852;9.882;2022-08-11T15:07:20;11.85;;;5.45;;
18210;SDS011;9231;48.852;9.882;2022-08-11T15:09:53;13.80;;;5.72;;
18210;SDS011;9231;48.852;9.882;2022-08-11T15:12:20;12.07;;;4.78;;
18210;SDS011;9231;48.852;9.882;2022-08-11T15:14:48;10.77;;;5.18;;
18210;SDS011;9231;48.852;9.882;2022-08-11T15:17:33;5.45;;;2.72;;
18210;SDS011;9231;48.852;9.882;2022-08-11T15:20:02;11.65;;;5.10;;
18210;SDS011;9231;48.852;9.882;2022-08-11T15:22:46;5.00;;;2.90;;
18210;SDS011;9231;48.852;9.882;2022-08-11T15:25:30;5.80;;;2.83;;
18210;SDS011;9231;48.852;9.882;2022-08-11T15:27:58;12.50;;;5.68;;
18210;SDS011;9231;48.852;9.882;2022-08-11T15:30:44;13.63;;;4.82;;
18210;SDS011;9231;48.852;9.882;2022-08-11T15:33:29;8.70;;;3.20;;
18210;SDS011;9231;48.852;9.882;2022-08-11T15:36:14;9.32;;;3.40;;
18210;SDS011;9231;48.852;9.882;2022-08-11T15:38:58;12.70;;;5.32;;
18210;SDS011;9231;48.852;9.882;2022-08-11T15:41:27;14.82;;;4.88;;
18210;SDS011;9231;48.852;9.882;2022-08-11T15:44:12;13.88;;;5.72;;
18210;SDS011;9231;48.852;9.882;2022-08-11T15:46:59;12.88;;;5.20;;
18210;SDS011;9231;48.852;9.882;2022-08-11T15:49:28;4.57;;;2.65;;
18210;SDS011;9231;48.852;9.882;2022-08-11T15:51:56;11.32;;;4.82;;
18210;SDS011;9231;48.852;9.882;2022-08-11T15:54:25;14.10;;;5.32;;
18210;SDS011;9231;48.852;9.882;2022-08-11T15:56:53;10.65;;;3.53;;
18210;SDS011;9231;48.852;9.882;2022-08-11T15:59:22;11.60;;;5.07;;
18210;SDS011;9231;48.852;9.882;2022-08-11T16:02:09;10.48;;;4.53;;
18210;SDS011;9231;48.852;9.882;2022-08-11T16:04:50;16.20;;;6.30;;
18210;SDS011;9231;48.852;9.882;2022-08-11T16:07:18;10.07;;;4.63;;
18210;SDS011;9231;48.852;9.882;2022-08-11T16:09:50;8.20;;;4.00;;
18210;SDS011;9231;48.852;9.882;2022-08-11T16:12:19;10.93;;;4.95;;
18210;SDS011;9231;48.852;9.882;2022-08-11T16:14:47;11.27;;;4.60;;
18210;SDS011;9231;48.852;9.882;2022-08-11T16:17:39;9.77;;;4.75;;
18210;SDS011;9231;48.852;9.882;2022-08-11T16:20:08;15.23;;;7.40;;
18210;SDS011;9231;48.852;9.882;2022-08-11T16:22:35;11.43;;;4.65;;
18210;SDS011;9231;48.852;9.882;2022-08-11T16:25:07;10.82;;;4.85;;
18210;SDS011;9231;48.852;9.882;2022-08-11T16:27:35;5.28;;;3.15;;
18210;SDS011;9231;48.852;9.882;2022-08-11T16:30:02;12.55;;;5.70;;